Map

Track Data

SID SEASON NUMBER BASIN SUBBASIN NAME ISO_TIME NATURE LAT LON WMO_WIND WMO_PRES WMO_AGENCY TRACK_TYPE DIST2LAND LANDFALL IFLAG USA_AGENCY USA_ATCF_ID USA_LAT USA_LON USA_RECORD USA_STATUS USA_WIND USA_PRES USA_SSHS USA_R34_NE USA_R34_SE USA_R34_SW USA_R34_NW USA_R50_NE USA_R50_SE USA_R50_SW USA_R50_NW USA_R64_NE USA_R64_SE USA_R64_SW USA_R64_NW USA_POCI USA_ROCI USA_RMW USA_EYE TOKYO_LAT TOKYO_LON TOKYO_GRADE TOKYO_WIND TOKYO_PRES TOKYO_R50_DIR TOKYO_R50_LONG TOKYO_R50_SHORT TOKYO_R30_DIR TOKYO_R30_LONG TOKYO_R30_SHORT TOKYO_LAND CMA_LAT CMA_LON CMA_CAT CMA_WIND CMA_PRES HKO_LAT HKO_LON HKO_CAT HKO_WIND HKO_PRES NEWDELHI_LAT NEWDELHI_LON NEWDELHI_GRADE NEWDELHI_WIND NEWDELHI_PRES NEWDELHI_CI NEWDELHI_DP NEWDELHI_POCI REUNION_LAT REUNION_LON REUNION_TYPE REUNION_WIND REUNION_PRES REUNION_TNUM REUNION_CI REUNION_RMW REUNION_R34_NE REUNION_R34_SE REUNION_R34_SW REUNION_R34_NW REUNION_R50_NE REUNION_R50_SE REUNION_R50_SW REUNION_R50_NW REUNION_R64_NE REUNION_R64_SE REUNION_R64_SW REUNION_R64_NW BOM_LAT BOM_LON BOM_TYPE BOM_WIND BOM_PRES BOM_TNUM BOM_CI BOM_RMW BOM_R34_NE BOM_R34_SE BOM_R34_SW BOM_R34_NW BOM_R50_NE BOM_R50_SE BOM_R50_SW BOM_R50_NW BOM_R64_NE BOM_R64_SE BOM_R64_SW BOM_R64_NW BOM_ROCI BOM_POCI BOM_EYE BOM_POS_METHOD BOM_PRES_METHOD NADI_LAT NADI_LON NADI_CAT NADI_WIND NADI_PRES WELLINGTON_LAT WELLINGTON_LON WELLINGTON_WIND WELLINGTON_PRES DS824_LAT DS824_LON DS824_STAGE DS824_WIND DS824_PRES TD9636_LAT TD9636_LON TD9636_STAGE TD9636_WIND TD9636_PRES TD9635_LAT TD9635_LON TD9635_WIND TD9635_PRES TD9635_ROCI NEUMANN_LAT NEUMANN_LON NEUMANN_CLASS NEUMANN_WIND NEUMANN_PRES MLC_LAT MLC_LON MLC_CLASS MLC_WIND MLC_PRES USA_GUST BOM_GUST BOM_GUST_PER REUNION_GUST REUNION_GUST_PER USA_SEAHGT USA_SEARAD_NE USA_SEARAD_SE USA_SEARAD_SW USA_SEARAD_NW STORM_SPEED STORM_DIR
1957183N16117 1957 36 WP MM NOT_NAMED 1957-07-01 18:00:00 TS 15.9000 117.400 main 246 246 __O___________ -1 15.9000 117.400 0 1001 11 271
1957183N16117 1957 36 WP MM NOT_NAMED 1957-07-01 21:00:00 TS 15.9129 116.852 main 299 299 __P___________ -1 15.9129 116.852 0 1000 10 276
1957183N16117 1957 36 WP MM NOT_NAMED 1957-07-02 00:00:00 TS 16.0000 116.400 main 352 352 __O___________ -1 16.0000 116.400 0 19 1000 8 293
1957183N16117 1957 36 WP MM NOT_NAMED 1957-07-02 03:00:00 TS 16.2123 116.105 main 385 385 __P___________ -1 16.2123 116.105 0 21 998 7 316
1957183N16117 1957 36 WP MM NOT_NAMED 1957-07-02 06:00:00 TS 16.5000 115.900 main 409 409 __O___________ -1 16.5000 115.900 1 23 996 7 327
1957183N16117 1957 36 WP MM NOT_NAMED 1957-07-02 09:00:00 TS 16.8074 115.700 main 436 436 __P___________ -1 16.8074 115.700 1 26 996 7 327
1957183N16117 1957 36 WP MM NOT_NAMED 1957-07-02 12:00:00 TS 17.1000 115.500 main 464 464 __O___________ -1 17.1000 115.500 1 29 996 7 322
1957183N16117 1957 36 WP MM NOT_NAMED 1957-07-02 15:00:00 TS 17.3224 115.272 main 490 482 __P___________ -1 17.3224 115.272 1 29 996 6 310
1957183N16117 1957 36 WP MM NOT_NAMED 1957-07-02 18:00:00 TS 17.5000 115.000 main 482 449 __O___________ -1 17.5000 115.000 1 29 996 7 300
1957183N16117 1957 36 WP MM NOT_NAMED 1957-07-02 21:00:00 TS 17.6575 114.672 main 444 401 __P___________ -1 17.6575 114.672 1 29 996 7 294
1957183N16117 1957 36 WP MM NOT_NAMED 1957-07-03 00:00:00 TS 17.8000 114.300 main 401 359 __O___________ -1 17.8000 114.300 1 29 996 8 293
1957183N16117 1957 36 WP MM NOT_NAMED 1957-07-03 03:00:00 TS 17.9574 113.922 main 353 312 __P___________ -1 17.9574 113.922 1 29 995 8 292
1957183N16117 1957 36 WP MM NOT_NAMED 1957-07-03 06:00:00 TS 18.1000 113.500 main 312 262 __O___________ -1 18.1000 113.500 1 29 994 9 286
1957183N16117 1957 36 WP MM NOT_NAMED 1957-07-03 09:00:00 TS 18.2151 113.000 main 262 214 __P___________ -1 18.2151 113.000 1 29 993 10 282
1957183N16117 1957 36 WP MM NOT_NAMED 1957-07-03 12:00:00 TS 18.3000 112.500 main 214 171 __O___________ -1 18.3000 112.500 1 29 993 9 279
1957183N16117 1957 36 WP MM NOT_NAMED 1957-07-03 15:00:00 TS 18.3573 112.092 main 171 133 __P___________ -1 18.3573 112.092 1 29 993 8 278
1957183N16117 1957 36 WP MM NOT_NAMED 1957-07-03 18:00:00 TS 18.4000 111.700 main 133 90 __O___________ -1 18.4000 111.700 1 29 993 8 277
1957183N16117 1957 36 WP MM NOT_NAMED 1957-07-03 21:00:00 TS 18.4574 111.265 main 90 46 __P___________ -1 18.4574 111.265 1 29 991 9 277
1957183N16117 1957 36 WP MM NOT_NAMED 1957-07-04 00:00:00 TS 18.5000 110.800 main 46 15 __O___________ -1 18.5000 110.800 1 29 990 9 273
1957183N16117 1957 36 WP MM NOT_NAMED 1957-07-04 03:00:00 TS 18.5076 110.277 main 15 0 __P___________ -1 18.5076 110.277 1 29 990 9 270
1957183N16117 1957 36 WP MM NOT_NAMED 1957-07-04 06:00:00 TS 18.5000 109.800 main 0 0 __O___________ -1 18.5000 109.800 1 29 990 8 269
1957183N16117 1957 36 WP MM NOT_NAMED 1957-07-04 09:00:00 TS 18.4997 109.478 main 0 0 __P___________ -1 18.4997 109.478 1 29 990 6 270
1957183N16117 1957 36 WP MM NOT_NAMED 1957-07-04 12:00:00 TS 18.5000 109.200 main 0 0 __O___________ -1 18.5000 109.200 1 29 990 6 268
1957183N16117 1957 36 WP MM NOT_NAMED 1957-07-04 15:00:00 TS 18.4773 108.880 main 0 0 __P___________ -1 18.4773 108.880 1 26 990 7 270
1957183N16117 1957 36 WP MM NOT_NAMED 1957-07-04 18:00:00 TS 18.5000 108.500 main 21 21 __O___________ -1 18.5000 108.500 1 23 990 8 279
1957183N16117 1957 36 WP MM NOT_NAMED 1957-07-04 21:00:00 TS 18.6126 108.008 main 73 73 __P___________ -1 18.6126 108.008 1 23 990 10 288
1957183N16117 1957 36 WP MM NOT_NAMED 1957-07-05 00:00:00 TS 18.8000 107.500 main 126 122 __O___________ -1 18.8000 107.500 1 23 990 10 296
1957183N16117 1957 36 WP MM NOT_NAMED 1957-07-05 03:00:00 TS 19.0424 107.070 main 122 94 __P___________ -1 19.0424 107.070 1 23 990 9 303
1957183N16117 1957 36 WP MM NOT_NAMED 1957-07-05 06:00:00 TS 19.3000 106.700 main 94 59 __O___________ -1 19.3000 106.700 1 23 990 8 306
1957183N16117 1957 36 WP MM NOT_NAMED 1957-07-05 09:00:00 TS 19.5148 106.392 main 59 23 __P___________ -1 19.5148 106.392 1 23 992 7 305
1957183N16117 1957 36 WP MM NOT_NAMED 1957-07-05 12:00:00 TS 19.7000 106.100 main 23 0 __O___________ -1 19.7000 106.100 1 23 995 7 300
1957183N16117 1957 36 WP MM NOT_NAMED 1957-07-05 15:00:00 TS 19.8577 105.765 main 0 0 __P___________ -1 19.8577 105.765 1 996 7 295
1957183N16117 1957 36 WP MM NOT_NAMED 1957-07-05 18:00:00 TS 20.0000 105.400 main 0 __O___________ -1 20.0000 105.400 0 997 7 293

Digital Typhoon Data and Search

About IBTrACS Database

This database is a web-friendly format of International Best Track Archive for Climate Stewardship (IBTrACS), a global best track data archive curated by NOAA dating back to 1842.

Updated: 2021-10-21